This is the latest recevied weather packets stored in our database for station/object DL2GPS-3. If no packets are shown the sender has not sent any weather packets the latest 10 day(s).
| Time | Temp. | Humidity | Pressure | Rain* | Wind** | Luminosity | Snow |
|---|---|---|---|---|---|---|---|
| 1777452950 | 13.89° C | 46% | 1020.6 hPa | - | - | - | - |
| 1777452349 | 13.33° C | 48% | 1020.6 hPa | - | - | - | - |
| 1777451748 | 12.78° C | 49% | 1020.4 hPa | - | - | - | - |
| 1777451147 | 12.78° C | 51% | 1020.3 hPa | - | - | - | - |
| 1777450547 | 12.22° C | 52% | 1020.4 hPa | - | - | - | - |
| 1777449946 | 11.67° C | 52% | 1020.3 hPa | - | - | - | - |
| 1777449346 | 11.67° C | 53% | 1020.4 hPa | - | - | - | - |
| 1777448745 | 11.67° C | 54% | 1020.4 hPa | - | - | - | - |
| 1777448144 | 11.67° C | 54% | 1020.2 hPa | - | - | - | - |
| 1777447543 | 11.67° C | 56% | 1020.2 hPa | - | - | - | - |
| 1777446942 | 11.11° C | 59% | 1020.2 hPa | - | - | - | - |
| 1777446341 | 10.56° C | 60% | 1020.2 hPa | - | - | - | - |
| 1777445740 | 10° C | 61% | 1020.1 hPa | - | - | - | - |
| 1777445139 | 10° C | 61% | 1020.2 hPa | - | - | - | - |
| 1777444538 | 10° C | 62% | 1020 hPa | - | - | - | - |
| 1777443938 | 11.11° C | 57% | 1020 hPa | - | - | - | - |
| 1777443337 | 13.33° C | 51% | 1019.8 hPa | - | - | - | - |
| 1777442737 | 10° C | 64% | 1019.7 hPa | - | - | - | - |
| 1777442136 | 8.33° C | 72% | 1019.7 hPa | - | - | - | - |
| 1777441536 | 7.78° C | 76% | 1019.6 hPa | - | - | - | - |
| 1777440934 | 7.22° C | 78% | 1019.6 hPa | - | - | - | - |
| 1777440333 | 7.22° C | 80% | 1019.7 hPa | - | - | - | - |
| 1777439733 | 6.67° C | 81% | 1019.6 hPa | - | - | - | - |
| 1777439131 | 6.67° C | 81% | 1019.5 hPa | - | - | - | - |
| 1777438530 | 6.67° C | 79% | 1019.4 hPa | - | - | - | - |
* Rain since midnight (hover to see other rain measurements)
** Current wind speed in m/s (hover to see current wind gust speed)